Kasserine, Tunisia

12:48 AM CET on September 03, 2014 (GMT +0100)
Ksar | Change Station
CLOSE
Current Station
Airport
Location: Gafsa,
Elevation: 1030 ft
Nearby Weather Stations

Elev 1030 ft 34.42 °N, 8.82 °E | Updated 48 minutes ago

Clear
Clear
79 °F
Feels Like 79 °F
N
10
Wind Variable Wind from North

Today
High -- | Low -- °F
--% Chance of Precip.
Yesterday
High -- | Low -- °F
Precip. -- in
6:00 AM 6:50 PM
First Quarter, 56% visible
Pressure 29.86 in
Visibility -9999.0 miles
Clouds
Dew Point 41 °F
Humidity 26%
Rainfall 0.00 in
Snow Depth Not available.
UV Not available.
Pollen Not available.
Air Quality Not available.
Flu Activity Not available.
METAR DTTF 022300Z 01009KT CAVOK 26/05 Q1011 NOSIG

More Conditions Fewer Conditions

Pressure 29.86 in
Visibility -9999.0 miles
Clouds
Dew Point 41 °F
Humidity 26%
Rainfall 0.00 in
Snow Depth Not available.
UV Not available.
Pollen Not available.
Air Quality Not available.
Flu Activity Not available.
METAR DTTF 022300Z 01009KT CAVOK 26/05 Q1011 NOSIG

More Conditions Fewer Conditions

10-Day Weather Forecast

Almanac

Astronomy

Sep. 03, 2014 Rise Set
Actual Time 6:00 AM CET 6:50 PM CET
Civil Twilight 5:34 AM CET 7:16 PM CET
Nautical Twilight 5:03 AM CET 7:46 PM CET
Astronomical Twilight 4:32 AM CET 8:18 PM CET
Moon 2:09 PM CET (9/3) No Moon Set
Length of Visible Light 13h 42m
Length of Day
12h 50m
Tomorrow will be 2m 7s shorter.
First Quarter, 56% of the Moon is Illuminated
Sep 2
First Quarter
Sep 8
Full
Sep 15
Last Quarter
Sep 24
New
Oct 1
First Quarter

Yesterday's Extremes

Country Highs Country Lows

Community

WunderPhotos

Upload Photos

1,749,799 photos uploaded!

Nearby

Snow Depth

Not available.

Earthquake Activity

City Distance Mag. Time & Date
No recent earthquake activity has been reported nearby.
Minimum magnitude displayed is 2.5.

Coastal Water Temperatures

Place Temperature
No Stations Reporting

Nearby Weather Stations